sensor_id;sensor_type;location;lat;lon;timestamp;P1;durP1;ratioP1;P2;durP2;ratioP2
16839;SDS011;8536;52.150;11.572;2022-12-18T00:02:08;33.47;;;17.23;;
16839;SDS011;8536;52.150;11.572;2022-12-18T00:04:35;32.00;;;16.33;;
16839;SDS011;8536;52.150;11.572;2022-12-18T00:07:01;31.33;;;16.37;;
16839;SDS011;8536;52.150;11.572;2022-12-18T00:09:28;33.93;;;17.60;;
16839;SDS011;8536;52.150;11.572;2022-12-18T00:12:05;30.17;;;16.60;;
16839;SDS011;8536;52.150;11.572;2022-12-18T00:14:40;29.20;;;15.90;;
16839;SDS011;8536;52.150;11.572;2022-12-18T00:17:07;29.00;;;15.47;;
16839;SDS011;8536;52.150;11.572;2022-12-18T00:19:34;34.43;;;17.33;;
16839;SDS011;8536;52.150;11.572;2022-12-18T00:22:00;32.67;;;16.47;;
16839;SDS011;8536;52.150;11.572;2022-12-18T00:24:27;29.40;;;15.17;;
16839;SDS011;8536;52.150;11.572;2022-12-18T00:26:53;31.83;;;16.67;;
16839;SDS011;8536;52.150;11.572;2022-12-18T00:29:20;29.10;;;15.90;;
16839;SDS011;8536;52.150;11.572;2022-12-18T00:31:46;33.57;;;16.13;;
16839;SDS011;8536;52.150;11.572;2022-12-18T00:34:13;31.50;;;15.70;;
16839;SDS011;8536;52.150;11.572;2022-12-18T00:36:40;32.60;;;15.67;;
16839;SDS011;8536;52.150;11.572;2022-12-18T00:39:07;29.07;;;14.67;;
16839;SDS011;8536;52.150;11.572;2022-12-18T00:41:34;37.57;;;17.70;;
16839;SDS011;8536;52.150;11.572;2022-12-18T00:44:19;31.93;;;15.73;;
16839;SDS011;8536;52.150;11.572;2022-12-18T00:46:46;34.50;;;16.00;;
16839;SDS011;8536;52.150;11.572;2022-12-18T00:49:14;28.70;;;14.97;;
16839;SDS011;8536;52.150;11.572;2022-12-18T00:51:41;31.43;;;16.07;;
16839;SDS011;8536;52.150;11.572;2022-12-18T00:54:09;32.00;;;16.20;;
16839;SDS011;8536;52.150;11.572;2022-12-18T00:56:37;26.57;;;13.53;;
16839;SDS011;8536;52.150;11.572;2022-12-18T00:59:14;28.87;;;15.07;;
16839;SDS011;8536;52.150;11.572;2022-12-18T01:01:40;26.10;;;13.93;;
16839;SDS011;8536;52.150;11.572;2022-12-18T01:04:07;24.37;;;14.17;;
16839;SDS011;8536;52.150;11.572;2022-12-18T01:06:34;32.10;;;16.17;;
16839;SDS011;8536;52.150;11.572;2022-12-18T01:09:00;25.93;;;14.27;;
16839;SDS011;8536;52.150;11.572;2022-12-18T01:11:27;29.10;;;15.07;;
16839;SDS011;8536;52.150;11.572;2022-12-18T01:13:53;26.20;;;14.97;;
16839;SDS011;8536;52.150;11.572;2022-12-18T01:16:21;25.93;;;14.23;;
16839;SDS011;8536;52.150;11.572;2022-12-18T01:18:50;28.13;;;15.93;;
16839;SDS011;8536;52.150;11.572;2022-12-18T01:21:18;29.07;;;15.40;;
16839;SDS011;8536;52.150;11.572;2022-12-18T01:23:45;29.33;;;13.87;;
16839;SDS011;8536;52.150;11.572;2022-12-18T01:26:13;28.13;;;13.70;;
16839;SDS011;8536;52.150;11.572;2022-12-18T01:28:40;28.20;;;14.03;;
16839;SDS011;8536;52.150;11.572;2022-12-18T01:31:14;32.07;;;16.20;;
16839;SDS011;8536;52.150;11.572;2022-12-18T01:33:49;30.20;;;14.33;;
16839;SDS011;8536;52.150;11.572;2022-12-18T01:36:37;27.27;;;14.20;;
16839;SDS011;8536;52.150;11.572;2022-12-18T01:39:04;29.80;;;15.77;;
16839;SDS011;8536;52.150;11.572;2022-12-18T01:41:32;30.13;;;14.47;;
16839;SDS011;8536;52.150;11.572;2022-12-18T01:47:23;26.70;;;14.70;;
16839;SDS011;8536;52.150;11.572;2022-12-18T01:49:51;27.93;;;13.93;;
16839;SDS011;8536;52.150;11.572;2022-12-18T01:52:17;29.87;;;14.00;;
16839;SDS011;8536;52.150;11.572;2022-12-18T01:54:45;31.53;;;14.87;;
16839;SDS011;8536;52.150;11.572;2022-12-18T01:57:12;27.30;;;14.33;;
16839;SDS011;8536;52.150;11.572;2022-12-18T01:59:39;30.53;;;14.63;;
16839;SDS011;8536;52.150;11.572;2022-12-18T02:02:07;28.13;;;14.33;;
16839;SDS011;8536;52.150;11.572;2022-12-18T02:04:34;31.00;;;15.83;;
16839;SDS011;8536;52.150;11.572;2022-12-18T02:07:09;29.67;;;14.67;;
16839;SDS011;8536;52.150;11.572;2022-12-18T02:09:46;28.27;;;14.93;;
16839;SDS011;8536;52.150;11.572;2022-12-18T02:12:19;29.90;;;14.07;;
16839;SDS011;8536;52.150;11.572;2022-12-18T02:17:28;27.93;;;14.53;;
16839;SDS011;8536;52.150;11.572;2022-12-18T02:23:11;29.80;;;14.37;;
16839;SDS011;8536;52.150;11.572;2022-12-18T02:28:25;30.17;;;15.33;;
16839;SDS011;8536;52.150;11.572;2022-12-18T02:30:54;28.47;;;14.33;;
16839;SDS011;8536;52.150;11.572;2022-12-18T02:33:24;26.37;;;14.13;;
16839;SDS011;8536;52.150;11.572;2022-12-18T02:35:51;28.77;;;14.73;;
16839;SDS011;8536;52.150;11.572;2022-12-18T02:38:19;28.50;;;14.53;;
16839;SDS011;8536;52.150;11.572;2022-12-18T02:40:46;27.00;;;14.70;;
16839;SDS011;8536;52.150;11.572;2022-12-18T02:43:13;33.40;;;16.00;;
16839;SDS011;8536;52.150;11.572;2022-12-18T02:45:52;32.13;;;16.17;;
16839;SDS011;8536;52.150;11.572;2022-12-18T02:48:22;33.50;;;16.87;;
16839;SDS011;8536;52.150;11.572;2022-12-18T02:51:03;30.13;;;14.23;;
16839;SDS011;8536;52.150;11.572;2022-12-18T02:53:36;30.63;;;16.13;;
16839;SDS011;8536;52.150;11.572;2022-12-18T02:56:09;29.23;;;15.20;;
16839;SDS011;8536;52.150;11.572;2022-12-18T02:58:53;31.17;;;14.63;;
16839;SDS011;8536;52.150;11.572;2022-12-18T03:04:09;31.07;;;16.80;;
16839;SDS011;8536;52.150;11.572;2022-12-18T03:06:40;27.80;;;14.33;;
16839;SDS011;8536;52.150;11.572;2022-12-18T03:09:09;24.77;;;13.93;;
16839;SDS011;8536;52.150;11.572;2022-12-18T03:11:39;28.87;;;15.27;;
16839;SDS011;8536;52.150;11.572;2022-12-18T03:14:25;28.20;;;15.97;;
16839;SDS011;8536;52.150;11.572;2022-12-18T03:16:54;25.80;;;14.17;;
16839;SDS011;8536;52.150;11.572;2022-12-18T03:19:25;31.10;;;14.67;;
16839;SDS011;8536;52.150;11.572;2022-12-18T03:21:55;27.67;;;15.43;;
16839;SDS011;8536;52.150;11.572;2022-12-18T03:24:22;27.23;;;15.23;;
16839;SDS011;8536;52.150;11.572;2022-12-18T03:26:52;30.93;;;16.43;;
16839;SDS011;8536;52.150;11.572;2022-12-18T03:32:05;29.60;;;14.93;;
16839;SDS011;8536;52.150;11.572;2022-12-18T03:34:35;33.10;;;16.30;;
16839;SDS011;8536;52.150;11.572;2022-12-18T03:37:02;32.10;;;17.47;;
16839;SDS011;8536;52.150;11.572;2022-12-18T03:39:29;33.87;;;17.43;;
16839;SDS011;8536;52.150;11.572;2022-12-18T03:42:01;32.23;;;16.77;;
16839;SDS011;8536;52.150;11.572;2022-12-18T03:53:15;40.13;;;17.77;;
16839;SDS011;8536;52.150;11.572;2022-12-18T03:55:58;32.43;;;17.33;;
16839;SDS011;8536;52.150;11.572;2022-12-18T03:58:25;32.67;;;17.60;;
16839;SDS011;8536;52.150;11.572;2022-12-18T04:00:54;33.90;;;17.83;;
16839;SDS011;8536;52.150;11.572;2022-12-18T04:03:22;40.33;;;18.73;;
16839;SDS011;8536;52.150;11.572;2022-12-18T04:05:52;38.53;;;18.70;;
16839;SDS011;8536;52.150;11.572;2022-12-18T04:08:20;38.90;;;18.53;;
16839;SDS011;8536;52.150;11.572;2022-12-18T04:10:47;32.07;;;18.00;;
16839;SDS011;8536;52.150;11.572;2022-12-18T04:13:21;37.03;;;18.23;;
16839;SDS011;8536;52.150;11.572;2022-12-18T04:15:51;33.20;;;15.43;;
16839;SDS011;8536;52.150;11.572;2022-12-18T04:18:17;32.17;;;16.33;;
16839;SDS011;8536;52.150;11.572;2022-12-18T04:20:44;30.63;;;16.03;;
16839;SDS011;8536;52.150;11.572;2022-12-18T04:23:10;30.70;;;16.10;;
16839;SDS011;8536;52.150;11.572;2022-12-18T04:25:37;30.60;;;16.87;;
16839;SDS011;8536;52.150;11.572;2022-12-18T04:28:03;32.40;;;15.67;;
16839;SDS011;8536;52.150;11.572;2022-12-18T04:30:30;26.90;;;15.57;;
16839;SDS011;8536;52.150;11.572;2022-12-18T04:32:56;28.53;;;15.53;;
16839;SDS011;8536;52.150;11.572;2022-12-18T04:35:23;30.93;;;16.10;;
16839;SDS011;8536;52.150;11.572;2022-12-18T04:37:49;31.90;;;16.53;;
16839;SDS011;8536;52.150;11.572;2022-12-18T04:40:15;33.97;;;17.57;;
16839;SDS011;8536;52.150;11.572;2022-12-18T04:42:42;27.47;;;15.90;;
16839;SDS011;8536;52.150;11.572;2022-12-18T04:45:09;34.57;;;17.53;;
16839;SDS011;8536;52.150;11.572;2022-12-18T04:47:35;30.47;;;16.53;;
16839;SDS011;8536;52.150;11.572;2022-12-18T04:50:02;31.37;;;16.70;;
16839;SDS011;8536;52.150;11.572;2022-12-18T04:52:28;32.87;;;16.93;;
16839;SDS011;8536;52.150;11.572;2022-12-18T04:54:58;28.83;;;15.77;;
16839;SDS011;8536;52.150;11.572;2022-12-18T04:57:24;31.60;;;15.70;;
16839;SDS011;8536;52.150;11.572;2022-12-18T04:59:51;30.70;;;15.20;;
16839;SDS011;8536;52.150;11.572;2022-12-18T05:02:17;33.87;;;16.13;;
16839;SDS011;8536;52.150;11.572;2022-12-18T05:04:44;34.60;;;15.57;;
16839;SDS011;8536;52.150;11.572;2022-12-18T05:07:10;33.20;;;16.90;;
16839;SDS011;8536;52.150;11.572;2022-12-18T05:09:37;33.03;;;16.30;;
16839;SDS011;8536;52.150;11.572;2022-12-18T05:12:03;31.47;;;17.10;;
16839;SDS011;8536;52.150;11.572;2022-12-18T05:14:30;33.83;;;17.20;;
16839;SDS011;8536;52.150;11.572;2022-12-18T05:16:56;37.80;;;18.07;;
16839;SDS011;8536;52.150;11.572;2022-12-18T05:19:26;39.80;;;18.03;;
16839;SDS011;8536;52.150;11.572;2022-12-18T05:21:53;38.00;;;18.60;;
16839;SDS011;8536;52.150;11.572;2022-12-18T05:24:19;37.70;;;19.73;;
16839;SDS011;8536;52.150;11.572;2022-12-18T05:26:45;37.20;;;18.07;;
16839;SDS011;8536;52.150;11.572;2022-12-18T05:29:12;34.47;;;18.30;;
16839;SDS011;8536;52.150;11.572;2022-12-18T05:31:39;35.67;;;18.37;;
16839;SDS011;8536;52.150;11.572;2022-12-18T05:34:07;35.07;;;17.87;;
16839;SDS011;8536;52.150;11.572;2022-12-18T05:36:33;34.33;;;18.43;;
16839;SDS011;8536;52.150;11.572;2022-12-18T05:39:00;33.87;;;17.27;;
16839;SDS011;8536;52.150;11.572;2022-12-18T05:41:27;36.80;;;18.00;;
16839;SDS011;8536;52.150;11.572;2022-12-18T05:43:54;38.53;;;17.33;;
16839;SDS011;8536;52.150;11.572;2022-12-18T05:46:20;37.77;;;18.07;;
16839;SDS011;8536;52.150;11.572;2022-12-18T05:48:47;33.37;;;17.73;;
16839;SDS011;8536;52.150;11.572;2022-12-18T05:51:14;37.40;;;19.53;;
16839;SDS011;8536;52.150;11.572;2022-12-18T05:53:42;35.30;;;18.07;;
16839;SDS011;8536;52.150;11.572;2022-12-18T05:56:10;37.27;;;19.47;;
16839;SDS011;8536;52.150;11.572;2022-12-18T05:58:39;39.27;;;19.30;;
16839;SDS011;8536;52.150;11.572;2022-12-18T06:01:08;39.63;;;17.97;;
16839;SDS011;8536;52.150;11.572;2022-12-18T06:03:39;36.13;;;18.00;;
16839;SDS011;8536;52.150;11.572;2022-12-18T06:06:16;40.47;;;19.37;;
16839;SDS011;8536;52.150;11.572;2022-12-18T06:08:47;37.67;;;19.87;;
16839;SDS011;8536;52.150;11.572;2022-12-18T06:11:15;40.80;;;19.53;;
16839;SDS011;8536;52.150;11.572;2022-12-18T06:13:43;41.63;;;18.97;;
16839;SDS011;8536;52.150;11.572;2022-12-18T06:16:09;37.13;;;19.00;;
16839;SDS011;8536;52.150;11.572;2022-12-18T06:18:36;44.23;;;20.80;;
16839;SDS011;8536;52.150;11.572;2022-12-18T06:21:03;36.33;;;19.63;;
16839;SDS011;8536;52.150;11.572;2022-12-18T06:23:29;37.90;;;20.17;;
16839;SDS011;8536;52.150;11.572;2022-12-18T06:25:56;42.10;;;21.40;;
16839;SDS011;8536;52.150;11.572;2022-12-18T06:28:22;42.23;;;20.90;;
16839;SDS011;8536;52.150;11.572;2022-12-18T06:30:49;41.33;;;20.20;;
16839;SDS011;8536;52.150;11.572;2022-12-18T06:33:16;38.43;;;20.23;;
16839;SDS011;8536;52.150;11.572;2022-12-18T06:35:42;38.23;;;19.23;;
16839;SDS011;8536;52.150;11.572;2022-12-18T06:38:09;36.73;;;19.63;;
16839;SDS011;8536;52.150;11.572;2022-12-18T06:40:36;38.30;;;19.47;;
16839;SDS011;8536;52.150;11.572;2022-12-18T06:43:04;37.03;;;19.13;;
16839;SDS011;8536;52.150;11.572;2022-12-18T06:45:31;36.33;;;19.10;;
16839;SDS011;8536;52.150;11.572;2022-12-18T06:47:58;35.20;;;18.10;;
16839;SDS011;8536;52.150;11.572;2022-12-18T06:50:24;32.27;;;18.17;;
16839;SDS011;8536;52.150;11.572;2022-12-18T06:52:51;33.47;;;18.63;;
16839;SDS011;8536;52.150;11.572;2022-12-18T06:55:17;37.90;;;18.87;;
16839;SDS011;8536;52.150;11.572;2022-12-18T06:57:44;35.93;;;19.30;;
16839;SDS011;8536;52.150;11.572;2022-12-18T07:00:11;34.70;;;19.33;;
16839;SDS011;8536;52.150;11.572;2022-12-18T07:02:37;36.13;;;18.13;;
16839;SDS011;8536;52.150;11.572;2022-12-18T07:05:04;33.90;;;19.07;;
16839;SDS011;8536;52.150;11.572;2022-12-18T07:07:36;36.00;;;19.33;;
16839;SDS011;8536;52.150;11.572;2022-12-18T07:10:02;34.97;;;18.23;;
16839;SDS011;8536;52.150;11.572;2022-12-18T07:12:29;39.23;;;19.30;;
16839;SDS011;8536;52.150;11.572;2022-12-18T07:14:56;44.33;;;21.30;;
16839;SDS011;8536;52.150;11.572;2022-12-18T07:17:22;43.43;;;20.53;;
16839;SDS011;8536;52.150;11.572;2022-12-18T07:19:48;40.67;;;19.60;;
16839;SDS011;8536;52.150;11.572;2022-12-18T07:22:15;38.27;;;18.63;;
16839;SDS011;8536;52.150;11.572;2022-12-18T07:24:41;41.87;;;20.47;;
16839;SDS011;8536;52.150;11.572;2022-12-18T07:27:08;41.97;;;19.93;;
16839;SDS011;8536;52.150;11.572;2022-12-18T07:29:35;39.30;;;18.50;;
16839;SDS011;8536;52.150;11.572;2022-12-18T07:32:03;43.10;;;21.00;;
16839;SDS011;8536;52.150;11.572;2022-12-18T07:34:29;38.83;;;20.37;;
16839;SDS011;8536;52.150;11.572;2022-12-18T07:36:56;41.23;;;20.37;;
16839;SDS011;8536;52.150;11.572;2022-12-18T07:39:22;40.63;;;21.20;;
16839;SDS011;8536;52.150;11.572;2022-12-18T07:41:48;36.87;;;20.40;;
16839;SDS011;8536;52.150;11.572;2022-12-18T07:44:35;38.60;;;19.30;;
16839;SDS011;8536;52.150;11.572;2022-12-18T07:47:02;38.70;;;20.03;;
16839;SDS011;8536;52.150;11.572;2022-12-18T07:49:36;40.23;;;19.67;;
16839;SDS011;8536;52.150;11.572;2022-12-18T07:52:03;36.33;;;18.10;;
16839;SDS011;8536;52.150;11.572;2022-12-18T07:54:29;37.57;;;19.47;;
16839;SDS011;8536;52.150;11.572;2022-12-18T07:56:56;34.10;;;18.70;;
16839;SDS011;8536;52.150;11.572;2022-12-18T07:59:22;40.33;;;20.03;;
16839;SDS011;8536;52.150;11.572;2022-12-18T08:01:48;39.37;;;18.13;;
16839;SDS011;8536;52.150;11.572;2022-12-18T08:04:16;37.27;;;19.57;;
16839;SDS011;8536;52.150;11.572;2022-12-18T08:06:43;40.37;;;19.87;;
16839;SDS011;8536;52.150;11.572;2022-12-18T08:09:13;35.07;;;17.83;;
16839;SDS011;8536;52.150;11.572;2022-12-18T08:11:40;35.03;;;17.73;;
16839;SDS011;8536;52.150;11.572;2022-12-18T08:14:06;33.70;;;17.10;;
16839;SDS011;8536;52.150;11.572;2022-12-18T08:16:32;34.20;;;18.17;;
16839;SDS011;8536;52.150;11.572;2022-12-18T08:18:59;34.20;;;18.17;;
16839;SDS011;8536;52.150;11.572;2022-12-18T08:21:27;37.47;;;19.93;;
16839;SDS011;8536;52.150;11.572;2022-12-18T08:23:55;35.90;;;19.43;;
16839;SDS011;8536;52.150;11.572;2022-12-18T08:26:23;34.83;;;18.77;;
16839;SDS011;8536;52.150;11.572;2022-12-18T08:28:51;40.20;;;19.53;;
16839;SDS011;8536;52.150;11.572;2022-12-18T08:31:19;36.23;;;18.30;;
16839;SDS011;8536;52.150;11.572;2022-12-18T08:33:48;38.87;;;18.43;;
16839;SDS011;8536;52.150;11.572;2022-12-18T08:36:15;36.33;;;19.13;;
16839;SDS011;8536;52.150;11.572;2022-12-18T08:38:42;35.67;;;18.27;;
16839;SDS011;8536;52.150;11.572;2022-12-18T08:41:09;33.30;;;17.87;;
16839;SDS011;8536;52.150;11.572;2022-12-18T08:43:37;32.17;;;17.63;;
16839;SDS011;8536;52.150;11.572;2022-12-18T08:46:23;34.27;;;17.83;;
16839;SDS011;8536;52.150;11.572;2022-12-18T08:48:51;34.77;;;17.47;;
16839;SDS011;8536;52.150;11.572;2022-12-18T08:51:18;32.27;;;17.53;;
16839;SDS011;8536;52.150;11.572;2022-12-18T08:53:45;29.77;;;17.20;;
16839;SDS011;8536;52.150;11.572;2022-12-18T08:56:12;30.83;;;16.87;;
16839;SDS011;8536;52.150;11.572;2022-12-18T08:58:39;30.97;;;16.77;;
16839;SDS011;8536;52.150;11.572;2022-12-18T09:01:08;30.03;;;17.33;;
16839;SDS011;8536;52.150;11.572;2022-12-18T09:03:37;31.67;;;17.30;;
16839;SDS011;8536;52.150;11.572;2022-12-18T09:06:04;26.27;;;16.50;;
16839;SDS011;8536;52.150;11.572;2022-12-18T09:08:31;33.30;;;18.23;;
16839;SDS011;8536;52.150;11.572;2022-12-18T09:10:58;33.43;;;17.33;;
16839;SDS011;8536;52.150;11.572;2022-12-18T09:13:24;29.03;;;16.77;;
16839;SDS011;8536;52.150;11.572;2022-12-18T09:15:51;30.87;;;17.60;;
16839;SDS011;8536;52.150;11.572;2022-12-18T09:18:19;27.93;;;16.00;;
16839;SDS011;8536;52.150;11.572;2022-12-18T09:20:46;34.10;;;17.10;;
16839;SDS011;8536;52.150;11.572;2022-12-18T09:23:13;30.70;;;16.93;;
16839;SDS011;8536;52.150;11.572;2022-12-18T09:25:40;30.40;;;17.37;;
16839;SDS011;8536;52.150;11.572;2022-12-18T09:28:10;28.60;;;16.27;;
16839;SDS011;8536;52.150;11.572;2022-12-18T09:30:38;28.17;;;17.63;;
16839;SDS011;8536;52.150;11.572;2022-12-18T09:33:06;30.67;;;17.37;;
16839;SDS011;8536;52.150;11.572;2022-12-18T09:35:32;33.37;;;17.33;;
16839;SDS011;8536;52.150;11.572;2022-12-18T09:37:59;34.97;;;17.90;;
16839;SDS011;8536;52.150;11.572;2022-12-18T09:40:26;36.10;;;18.40;;
16839;SDS011;8536;52.150;11.572;2022-12-18T09:42:59;28.77;;;17.57;;
16839;SDS011;8536;52.150;11.572;2022-12-18T09:45:27;28.50;;;16.13;;
16839;SDS011;8536;52.150;11.572;2022-12-18T09:48:05;30.57;;;16.80;;
16839;SDS011;8536;52.150;11.572;2022-12-18T09:50:34;29.37;;;17.20;;
16839;SDS011;8536;52.150;11.572;2022-12-18T09:53:09;32.23;;;18.23;;
16839;SDS011;8536;52.150;11.572;2022-12-18T09:55:40;30.97;;;16.77;;
16839;SDS011;8536;52.150;11.572;2022-12-18T09:58:17;30.53;;;16.97;;
16839;SDS011;8536;52.150;11.572;2022-12-18T10:00:47;26.37;;;16.03;;
16839;SDS011;8536;52.150;11.572;2022-12-18T10:03:14;31.70;;;16.83;;
16839;SDS011;8536;52.150;11.572;2022-12-18T10:08:19;29.13;;;15.63;;
16839;SDS011;8536;52.150;11.572;2022-12-18T10:10:55;31.23;;;16.80;;
16839;SDS011;8536;52.150;11.572;2022-12-18T10:13:36;28.53;;;15.47;;
16839;SDS011;8536;52.150;11.572;2022-12-18T10:26:58;26.00;;;14.77;;
16839;SDS011;8536;52.150;11.572;2022-12-18T10:29:32;27.43;;;15.37;;
16839;SDS011;8536;52.150;11.572;2022-12-18T10:31:59;28.73;;;14.40;;
16839;SDS011;8536;52.150;11.572;2022-12-18T10:34:25;29.30;;;16.03;;
16839;SDS011;8536;52.150;11.572;2022-12-18T10:36:52;27.43;;;15.17;;
16839;SDS011;8536;52.150;11.572;2022-12-18T10:39:19;27.23;;;15.13;;
16839;SDS011;8536;52.150;11.572;2022-12-18T10:41:48;28.80;;;14.87;;
16839;SDS011;8536;52.150;11.572;2022-12-18T10:44:19;27.63;;;14.73;;
16839;SDS011;8536;52.150;11.572;2022-12-18T10:46:50;27.60;;;15.27;;
16839;SDS011;8536;52.150;11.572;2022-12-18T10:49:23;26.97;;;14.30;;
16839;SDS011;8536;52.150;11.572;2022-12-18T10:51:52;28.90;;;15.50;;
16839;SDS011;8536;52.150;11.572;2022-12-18T10:54:48;27.10;;;15.40;;
16839;SDS011;8536;52.150;11.572;2022-12-18T10:57:29;25.77;;;14.60;;
16839;SDS011;8536;52.150;11.572;2022-12-18T10:59:59;25.50;;;14.30;;
16839;SDS011;8536;52.150;11.572;2022-12-18T11:02:47;25.13;;;14.77;;
16839;SDS011;8536;52.150;11.572;2022-12-18T11:05:30;24.17;;;14.97;;
16839;SDS011;8536;52.150;11.572;2022-12-18T11:07:58;23.43;;;13.73;;
16839;SDS011;8536;52.150;11.572;2022-12-18T11:10:28;22.77;;;13.60;;
16839;SDS011;8536;52.150;11.572;2022-12-18T11:13:09;26.20;;;15.27;;
16839;SDS011;8536;52.150;11.572;2022-12-18T11:15:36;26.43;;;13.90;;
16839;SDS011;8536;52.150;11.572;2022-12-18T11:18:14;24.23;;;13.80;;
16839;SDS011;8536;52.150;11.572;2022-12-18T11:20:52;23.80;;;14.27;;
16839;SDS011;8536;52.150;11.572;2022-12-18T11:23:26;22.73;;;14.03;;
16839;SDS011;8536;52.150;11.572;2022-12-18T11:25:54;22.60;;;14.03;;
16839;SDS011;8536;52.150;11.572;2022-12-18T11:33:54;25.50;;;14.40;;
16839;SDS011;8536;52.150;11.572;2022-12-18T11:36:43;23.77;;;13.37;;
16839;SDS011;8536;52.150;11.572;2022-12-18T11:39:34;26.30;;;13.77;;
16839;SDS011;8536;52.150;11.572;2022-12-18T11:42:05;21.43;;;13.40;;
16839;SDS011;8536;52.150;11.572;2022-12-18T11:44:38;22.57;;;13.57;;
16839;SDS011;8536;52.150;11.572;2022-12-18T11:49:49;23.03;;;13.40;;
16839;SDS011;8536;52.150;11.572;2022-12-18T11:52:19;23.60;;;12.53;;
16839;SDS011;8536;52.150;11.572;2022-12-18T11:54:52;21.53;;;12.27;;
16839;SDS011;8536;52.150;11.572;2022-12-18T11:57:25;20.40;;;13.17;;
16839;SDS011;8536;52.150;11.572;2022-12-18T12:00:11;21.40;;;13.07;;
16839;SDS011;8536;52.150;11.572;2022-12-18T12:02:59;20.70;;;12.60;;
16839;SDS011;8536;52.150;11.572;2022-12-18T12:08:27;23.40;;;13.30;;
16839;SDS011;8536;52.150;11.572;2022-12-18T12:25:02;31.50;;;18.73;;
16839;SDS011;8536;52.150;11.572;2022-12-18T12:30:21;31.77;;;17.70;;
16839;SDS011;8536;52.150;11.572;2022-12-18T12:38:43;50.47;;;25.20;;
16839;SDS011;8536;52.150;11.572;2022-12-18T12:41:18;63.70;;;29.30;;
16839;SDS011;8536;52.150;11.572;2022-12-18T12:44:15;55.13;;;28.30;;
16839;SDS011;8536;52.150;11.572;2022-12-18T12:46:45;51.97;;;25.13;;
16839;SDS011;8536;52.150;11.572;2022-12-18T12:49:14;49.27;;;23.63;;
16839;SDS011;8536;52.150;11.572;2022-12-18T12:51:43;36.23;;;18.67;;
16839;SDS011;8536;52.150;11.572;2022-12-18T12:54:16;24.47;;;14.57;;
16839;SDS011;8536;52.150;11.572;2022-12-18T12:56:47;27.83;;;15.73;;
16839;SDS011;8536;52.150;11.572;2022-12-18T12:59:20;24.47;;;15.30;;
16839;SDS011;8536;52.150;11.572;2022-12-18T13:01:54;23.77;;;13.30;;
16839;SDS011;8536;52.150;11.572;2022-12-18T13:07:26;23.93;;;13.50;;
16839;SDS011;8536;52.150;11.572;2022-12-18T13:13:03;21.93;;;12.53;;
16839;SDS011;8536;52.150;11.572;2022-12-18T13:18:32;21.20;;;11.47;;
16839;SDS011;8536;52.150;11.572;2022-12-18T13:23:35;20.53;;;12.00;;
16839;SDS011;8536;52.150;11.572;2022-12-18T13:30:58;18.87;;;12.30;;
16839;SDS011;8536;52.150;11.572;2022-12-18T13:41:49;19.43;;;11.87;;
16839;SDS011;8536;52.150;11.572;2022-12-18T13:47:05;21.73;;;11.40;;
16839;SDS011;8536;52.150;11.572;2022-12-18T13:50:02;20.17;;;11.40;;
16839;SDS011;8536;52.150;11.572;2022-12-18T13:52:36;21.60;;;12.03;;
16839;SDS011;8536;52.150;11.572;2022-12-18T13:55:04;19.50;;;11.43;;
16839;SDS011;8536;52.150;11.572;2022-12-18T13:57:37;21.80;;;12.07;;
16839;SDS011;8536;52.150;11.572;2022-12-18T14:02:50;23.33;;;12.93;;
16839;SDS011;8536;52.150;11.572;2022-12-18T14:05:36;18.33;;;11.20;;
16839;SDS011;8536;52.150;11.572;2022-12-18T14:08:06;22.57;;;12.17;;
16839;SDS011;8536;52.150;11.572;2022-12-18T14:10:35;20.47;;;11.90;;
16839;SDS011;8536;52.150;11.572;2022-12-18T14:13:15;23.77;;;12.87;;
16839;SDS011;8536;52.150;11.572;2022-12-18T14:15:48;18.07;;;11.33;;
16839;SDS011;8536;52.150;11.572;2022-12-18T14:20:51;18.33;;;11.70;;
16839;SDS011;8536;52.150;11.572;2022-12-18T14:28:50;21.83;;;12.90;;
16839;SDS011;8536;52.150;11.572;2022-12-18T14:31:20;21.17;;;10.80;;
16839;SDS011;8536;52.150;11.572;2022-12-18T14:33:51;20.23;;;11.80;;
16839;SDS011;8536;52.150;11.572;2022-12-18T14:36:19;26.07;;;13.27;;
16839;SDS011;8536;52.150;11.572;2022-12-18T14:38:51;21.10;;;11.90;;
16839;SDS011;8536;52.150;11.572;2022-12-18T14:41:20;20.63;;;11.90;;
16839;SDS011;8536;52.150;11.572;2022-12-18T14:43:48;21.30;;;11.90;;
16839;SDS011;8536;52.150;11.572;2022-12-18T14:46:35;28.33;;;14.30;;
16839;SDS011;8536;52.150;11.572;2022-12-18T14:49:03;29.00;;;13.80;;
16839;SDS011;8536;52.150;11.572;2022-12-18T14:51:32;26.87;;;13.30;;
16839;SDS011;8536;52.150;11.572;2022-12-18T14:54:00;24.63;;;13.10;;
16839;SDS011;8536;52.150;11.572;2022-12-18T14:56:34;27.77;;;13.53;;
16839;SDS011;8536;52.150;11.572;2022-12-18T14:59:03;26.60;;;14.17;;
16839;SDS011;8536;52.150;11.572;2022-12-18T15:01:32;27.13;;;14.07;;
16839;SDS011;8536;52.150;11.572;2022-12-18T15:04:01;24.73;;;13.30;;
16839;SDS011;8536;52.150;11.572;2022-12-18T15:06:33;30.87;;;14.67;;
16839;SDS011;8536;52.150;11.572;2022-12-18T15:09:03;26.70;;;13.97;;
16839;SDS011;8536;52.150;11.572;2022-12-18T15:11:47;31.73;;;14.80;;
16839;SDS011;8536;52.150;11.572;2022-12-18T15:16:56;32.80;;;17.37;;
16839;SDS011;8536;52.150;11.572;2022-12-18T15:19:26;31.20;;;16.53;;
16839;SDS011;8536;52.150;11.572;2022-12-18T15:21:58;27.97;;;15.13;;
16839;SDS011;8536;52.150;11.572;2022-12-18T15:24:31;28.97;;;14.40;;
16839;SDS011;8536;52.150;11.572;2022-12-18T15:26:59;33.57;;;15.37;;
16839;SDS011;8536;52.150;11.572;2022-12-18T15:29:25;28.13;;;14.57;;
16839;SDS011;8536;52.150;11.572;2022-12-18T15:31:59;27.27;;;15.10;;
16839;SDS011;8536;52.150;11.572;2022-12-18T15:34:32;30.53;;;16.60;;
16839;SDS011;8536;52.150;11.572;2022-12-18T15:37:00;29.63;;;16.17;;
16839;SDS011;8536;52.150;11.572;2022-12-18T15:39:26;35.57;;;17.53;;
16839;SDS011;8536;52.150;11.572;2022-12-18T15:41:53;34.77;;;18.63;;
16839;SDS011;8536;52.150;11.572;2022-12-18T15:44:37;38.97;;;20.70;;
16839;SDS011;8536;52.150;11.572;2022-12-18T15:47:07;30.57;;;19.33;;
16839;SDS011;8536;52.150;11.572;2022-12-18T15:49:36;28.80;;;16.00;;
16839;SDS011;8536;52.150;11.572;2022-12-18T15:52:03;28.37;;;15.80;;
16839;SDS011;8536;52.150;11.572;2022-12-18T15:54:30;33.77;;;16.87;;
16839;SDS011;8536;52.150;11.572;2022-12-18T15:57:15;29.90;;;15.83;;
16839;SDS011;8536;52.150;11.572;2022-12-18T15:59:51;29.97;;;15.13;;
16839;SDS011;8536;52.150;11.572;2022-12-18T16:02:22;30.87;;;15.43;;
16839;SDS011;8536;52.150;11.572;2022-12-18T16:04:50;33.17;;;14.83;;
16839;SDS011;8536;52.150;11.572;2022-12-18T16:07:18;31.67;;;15.23;;
16839;SDS011;8536;52.150;11.572;2022-12-18T16:09:50;30.23;;;14.73;;
16839;SDS011;8536;52.150;11.572;2022-12-18T16:12:18;26.87;;;14.30;;
16839;SDS011;8536;52.150;11.572;2022-12-18T16:14:46;29.00;;;14.10;;
16839;SDS011;8536;52.150;11.572;2022-12-18T16:17:13;29.30;;;14.43;;
16839;SDS011;8536;52.150;11.572;2022-12-18T16:19:40;32.73;;;15.73;;
16839;SDS011;8536;52.150;11.572;2022-12-18T16:22:08;31.83;;;14.77;;
16839;SDS011;8536;52.150;11.572;2022-12-18T16:24:49;30.10;;;15.63;;
16839;SDS011;8536;52.150;11.572;2022-12-18T16:27:16;30.93;;;15.67;;
16839;SDS011;8536;52.150;11.572;2022-12-18T16:29:43;30.07;;;14.70;;
16839;SDS011;8536;52.150;11.572;2022-12-18T16:32:14;26.63;;;15.53;;